sensor_id;sensor_type;location;lat;lon;timestamp;temperature;humidity
13589;DHT22;6865;52.552;13.434;2023-12-07T00:02:20;1.70;99.90
13589;DHT22;6865;52.552;13.434;2023-12-07T00:04:47;1.30;99.90
13589;DHT22;6865;52.552;13.434;2023-12-07T00:07:14;1.70;99.90
13589;DHT22;6865;52.552;13.434;2023-12-07T00:09:41;1.60;99.90
13589;DHT22;6865;52.552;13.434;2023-12-07T00:12:08;1.50;99.90
13589;DHT22;6865;52.552;13.434;2023-12-07T00:14:34;1.60;99.90
13589;DHT22;6865;52.552;13.434;2023-12-07T00:17:01;1.60;99.90
13589;DHT22;6865;52.552;13.434;2023-12-07T00:19:28;1.60;99.90
13589;DHT22;6865;52.552;13.434;2023-12-07T00:21:54;1.70;99.90
13589;DHT22;6865;52.552;13.434;2023-12-07T00:24:22;1.60;99.90
13589;DHT22;6865;52.552;13.434;2023-12-07T00:26:48;1.80;99.90
13589;DHT22;6865;52.552;13.434;2023-12-07T00:29:16;2.00;99.90
13589;DHT22;6865;52.552;13.434;2023-12-07T00:31:42;2.00;99.90
13589;DHT22;6865;52.552;13.434;2023-12-07T00:34:10;1.80;99.90
13589;DHT22;6865;52.552;13.434;2023-12-07T00:36:37;1.70;99.90
13589;DHT22;6865;52.552;13.434;2023-12-07T00:39:03;1.40;99.90
13589;DHT22;6865;52.552;13.434;2023-12-07T00:41:30;1.70;99.90
13589;DHT22;6865;52.552;13.434;2023-12-07T00:43:58;1.70;99.90
13589;DHT22;6865;52.552;13.434;2023-12-07T00:46:24;1.80;99.90
13589;DHT22;6865;52.552;13.434;2023-12-07T00:48:51;2.00;99.90
13589;DHT22;6865;52.552;13.434;2023-12-07T00:51:18;2.10;99.90
13589;DHT22;6865;52.552;13.434;2023-12-07T00:53:44;2.10;99.90
13589;DHT22;6865;52.552;13.434;2023-12-07T00:56:11;2.10;99.90
13589;DHT22;6865;52.552;13.434;2023-12-07T00:58:38;2.10;99.90
13589;DHT22;6865;52.552;13.434;2023-12-07T01:01:05;2.10;99.90
13589;DHT22;6865;52.552;13.434;2023-12-07T01:03:32;2.20;99.90
13589;DHT22;6865;52.552;13.434;2023-12-07T01:05:59;2.20;99.90
13589;DHT22;6865;52.552;13.434;2023-12-07T01:08:25;2.10;99.90
13589;DHT22;6865;52.552;13.434;2023-12-07T01:10:52;2.20;99.90
13589;DHT22;6865;52.552;13.434;2023-12-07T01:13:19;2.20;99.90
13589;DHT22;6865;52.552;13.434;2023-12-07T01:15:45;2.20;99.90
13589;DHT22;6865;52.552;13.434;2023-12-07T01:18:12;2.20;99.90
13589;DHT22;6865;52.552;13.434;2023-12-07T01:20:39;2.20;99.90
13589;DHT22;6865;52.552;13.434;2023-12-07T01:23:05;2.10;99.90
13589;DHT22;6865;52.552;13.434;2023-12-07T01:25:32;2.10;99.90
13589;DHT22;6865;52.552;13.434;2023-12-07T01:27:59;2.10;99.90
13589;DHT22;6865;52.552;13.434;2023-12-07T01:30:26;2.10;99.90
13589;DHT22;6865;52.552;13.434;2023-12-07T01:32:53;2.10;99.90
13589;DHT22;6865;52.552;13.434;2023-12-07T01:35:20;2.10;99.90
13589;DHT22;6865;52.552;13.434;2023-12-07T01:37:46;2.10;99.90
13589;DHT22;6865;52.552;13.434;2023-12-07T01:40:15;2.00;99.90
13589;DHT22;6865;52.552;13.434;2023-12-07T01:42:52;2.00;99.90
13589;DHT22;6865;52.552;13.434;2023-12-07T01:45:20;1.90;99.90
13589;DHT22;6865;52.552;13.434;2023-12-07T01:47:48;1.70;99.90
13589;DHT22;6865;52.552;13.434;2023-12-07T01:50:16;1.70;99.90
13589;DHT22;6865;52.552;13.434;2023-12-07T01:52:47;1.70;99.90
13589;DHT22;6865;52.552;13.434;2023-12-07T01:55:15;1.70;99.90
13589;DHT22;6865;52.552;13.434;2023-12-07T01:57:43;1.60;99.90
13589;DHT22;6865;52.552;13.434;2023-12-07T02:00:12;1.60;99.90
13589;DHT22;6865;52.552;13.434;2023-12-07T02:02:39;1.50;99.90
13589;DHT22;6865;52.552;13.434;2023-12-07T02:05:07;1.50;99.90
13589;DHT22;6865;52.552;13.434;2023-12-07T02:07:34;1.50;99.90
13589;DHT22;6865;52.552;13.434;2023-12-07T02:10:01;1.50;99.90
13589;DHT22;6865;52.552;13.434;2023-12-07T02:12:28;1.50;99.90
13589;DHT22;6865;52.552;13.434;2023-12-07T02:14:56;1.50;99.90
13589;DHT22;6865;52.552;13.434;2023-12-07T02:17:55;1.40;99.90
13589;DHT22;6865;52.552;13.434;2023-12-07T02:20:29;1.60;99.90
13589;DHT22;6865;52.552;13.434;2023-12-07T02:23:01;1.60;99.90
13589;DHT22;6865;52.552;13.434;2023-12-07T02:25:44;1.60;99.90
13589;DHT22;6865;52.552;13.434;2023-12-07T02:28:14;1.60;99.90
13589;DHT22;6865;52.552;13.434;2023-12-07T02:30:41;1.60;99.90
13589;DHT22;6865;52.552;13.434;2023-12-07T02:33:07;1.60;99.90
13589;DHT22;6865;52.552;13.434;2023-12-07T02:35:35;1.70;99.90
13589;DHT22;6865;52.552;13.434;2023-12-07T02:38:02;1.70;99.90
13589;DHT22;6865;52.552;13.434;2023-12-07T02:40:30;1.60;99.90
13589;DHT22;6865;52.552;13.434;2023-12-07T02:42:58;1.70;99.90
13589;DHT22;6865;52.552;13.434;2023-12-07T02:45:26;1.70;99.90
13589;DHT22;6865;52.552;13.434;2023-12-07T02:47:53;1.90;99.90
13589;DHT22;6865;52.552;13.434;2023-12-07T02:50:20;1.80;99.90
13589;DHT22;6865;52.552;13.434;2023-12-07T02:52:47;1.80;99.90
13589;DHT22;6865;52.552;13.434;2023-12-07T02:55:13;1.70;99.90
13589;DHT22;6865;52.552;13.434;2023-12-07T02:57:40;1.70;99.90
13589;DHT22;6865;52.552;13.434;2023-12-07T03:00:07;1.70;99.90
13589;DHT22;6865;52.552;13.434;2023-12-07T03:02:39;1.80;99.90
13589;DHT22;6865;52.552;13.434;2023-12-07T03:05:06;1.80;99.90
13589;DHT22;6865;52.552;13.434;2023-12-07T03:07:34;1.80;99.90
13589;DHT22;6865;52.552;13.434;2023-12-07T03:10:01;1.80;99.90
13589;DHT22;6865;52.552;13.434;2023-12-07T03:12:29;1.90;99.90
13589;DHT22;6865;52.552;13.434;2023-12-07T03:14:56;2.00;99.90
13589;DHT22;6865;52.552;13.434;2023-12-07T03:17:22;1.60;99.90
13589;DHT22;6865;52.552;13.434;2023-12-07T03:19:50;1.90;99.90
13589;DHT22;6865;52.552;13.434;2023-12-07T03:22:16;2.00;99.90
13589;DHT22;6865;52.552;13.434;2023-12-07T03:24:50;2.00;99.90
13589;DHT22;6865;52.552;13.434;2023-12-07T03:27:17;2.00;99.90
13589;DHT22;6865;52.552;13.434;2023-12-07T03:29:43;2.10;99.90
13589;DHT22;6865;52.552;13.434;2023-12-07T03:32:10;1.70;99.90
13589;DHT22;6865;52.552;13.434;2023-12-07T03:34:37;1.80;99.90
13589;DHT22;6865;52.552;13.434;2023-12-07T03:37:04;1.70;99.90
13589;DHT22;6865;52.552;13.434;2023-12-07T03:39:32;1.70;99.90
13589;DHT22;6865;52.552;13.434;2023-12-07T03:41:59;1.60;99.90
13589;DHT22;6865;52.552;13.434;2023-12-07T03:44:26;1.60;99.90
13589;DHT22;6865;52.552;13.434;2023-12-07T03:46:54;1.50;99.90
13589;DHT22;6865;52.552;13.434;2023-12-07T03:49:20;1.50;99.90
13589;DHT22;6865;52.552;13.434;2023-12-07T03:51:47;1.50;99.90
13589;DHT22;6865;52.552;13.434;2023-12-07T03:54:15;1.60;99.90
13589;DHT22;6865;52.552;13.434;2023-12-07T03:56:42;1.60;99.90
13589;DHT22;6865;52.552;13.434;2023-12-07T03:59:08;1.60;99.90
13589;DHT22;6865;52.552;13.434;2023-12-07T04:01:35;1.50;99.90
13589;DHT22;6865;52.552;13.434;2023-12-07T04:04:02;1.50;99.90
13589;DHT22;6865;52.552;13.434;2023-12-07T04:06:29;1.40;99.90
13589;DHT22;6865;52.552;13.434;2023-12-07T04:08:56;1.50;99.90
13589;DHT22;6865;52.552;13.434;2023-12-07T04:11:22;1.50;99.90
13589;DHT22;6865;52.552;13.434;2023-12-07T04:13:49;1.40;99.90
13589;DHT22;6865;52.552;13.434;2023-12-07T04:16:16;1.50;99.90
13589;DHT22;6865;52.552;13.434;2023-12-07T04:18:43;1.50;99.90
13589;DHT22;6865;52.552;13.434;2023-12-07T04:21:10;1.50;99.90
13589;DHT22;6865;52.552;13.434;2023-12-07T04:23:36;1.60;99.90
13589;DHT22;6865;52.552;13.434;2023-12-07T04:26:03;1.80;99.90
13589;DHT22;6865;52.552;13.434;2023-12-07T04:28:30;1.60;99.90
13589;DHT22;6865;52.552;13.434;2023-12-07T04:30:56;1.60;99.90
13589;DHT22;6865;52.552;13.434;2023-12-07T04:33:23;1.70;99.90
13589;DHT22;6865;52.552;13.434;2023-12-07T04:35:50;1.70;99.90
13589;DHT22;6865;52.552;13.434;2023-12-07T04:38:17;1.70;99.90
13589;DHT22;6865;52.552;13.434;2023-12-07T04:40:43;1.70;99.90
13589;DHT22;6865;52.552;13.434;2023-12-07T04:43:10;1.90;99.90
13589;DHT22;6865;52.552;13.434;2023-12-07T04:45:37;1.90;99.90
13589;DHT22;6865;52.552;13.434;2023-12-07T04:48:05;1.90;99.90
13589;DHT22;6865;52.552;13.434;2023-12-07T04:50:32;1.80;99.90
13589;DHT22;6865;52.552;13.434;2023-12-07T04:52:58;1.80;99.90
13589;DHT22;6865;52.552;13.434;2023-12-07T04:55:25;1.80;99.90
13589;DHT22;6865;52.552;13.434;2023-12-07T04:57:53;1.70;99.90
13589;DHT22;6865;52.552;13.434;2023-12-07T05:00:19;1.70;99.90
13589;DHT22;6865;52.552;13.434;2023-12-07T05:02:47;1.70;99.90
13589;DHT22;6865;52.552;13.434;2023-12-07T05:05:14;1.70;99.90
13589;DHT22;6865;52.552;13.434;2023-12-07T05:07:41;1.80;99.90
13589;DHT22;6865;52.552;13.434;2023-12-07T05:10:08;1.90;99.90
13589;DHT22;6865;52.552;13.434;2023-12-07T05:12:36;1.80;99.90
13589;DHT22;6865;52.552;13.434;2023-12-07T05:15:03;1.90;99.90
13589;DHT22;6865;52.552;13.434;2023-12-07T05:17:31;1.80;99.90
13589;DHT22;6865;52.552;13.434;2023-12-07T05:19:58;1.90;99.90
13589;DHT22;6865;52.552;13.434;2023-12-07T05:22:24;1.80;99.90
13589;DHT22;6865;52.552;13.434;2023-12-07T05:24:51;2.10;99.90
13589;DHT22;6865;52.552;13.434;2023-12-07T05:27:18;2.00;99.90
13589;DHT22;6865;52.552;13.434;2023-12-07T05:29:45;2.10;99.90
13589;DHT22;6865;52.552;13.434;2023-12-07T05:32:12;2.10;99.90
13589;DHT22;6865;52.552;13.434;2023-12-07T05:34:39;2.00;99.90
13589;DHT22;6865;52.552;13.434;2023-12-07T05:37:05;2.10;99.90
13589;DHT22;6865;52.552;13.434;2023-12-07T05:39:32;2.00;99.90
13589;DHT22;6865;52.552;13.434;2023-12-07T05:41:59;2.00;99.90
13589;DHT22;6865;52.552;13.434;2023-12-07T05:44:26;2.00;99.90
13589;DHT22;6865;52.552;13.434;2023-12-07T05:46:52;2.00;99.90
13589;DHT22;6865;52.552;13.434;2023-12-07T05:49:19;2.00;99.90
13589;DHT22;6865;52.552;13.434;2023-12-07T05:51:49;2.30;99.90
13589;DHT22;6865;52.552;13.434;2023-12-07T05:54:15;1.90;99.90
13589;DHT22;6865;52.552;13.434;2023-12-07T05:56:42;1.90;99.90
13589;DHT22;6865;52.552;13.434;2023-12-07T05:59:09;1.80;99.90
13589;DHT22;6865;52.552;13.434;2023-12-07T06:01:36;1.80;99.90
13589;DHT22;6865;52.552;13.434;2023-12-07T06:04:05;1.80;99.90
13589;DHT22;6865;52.552;13.434;2023-12-07T06:06:32;1.90;99.90
13589;DHT22;6865;52.552;13.434;2023-12-07T06:08:59;1.70;99.90
13589;DHT22;6865;52.552;13.434;2023-12-07T06:11:26;2.00;99.90
13589;DHT22;6865;52.552;13.434;2023-12-07T06:13:52;1.50;99.90
13589;DHT22;6865;52.552;13.434;2023-12-07T06:16:19;1.90;99.90
13589;DHT22;6865;52.552;13.434;2023-12-07T06:18:46;1.80;99.90
13589;DHT22;6865;52.552;13.434;2023-12-07T06:21:14;1.70;99.90
13589;DHT22;6865;52.552;13.434;2023-12-07T06:23:41;1.70;99.90
13589;DHT22;6865;52.552;13.434;2023-12-07T06:26:08;1.70;99.90
13589;DHT22;6865;52.552;13.434;2023-12-07T06:28:35;1.90;99.90
13589;DHT22;6865;52.552;13.434;2023-12-07T06:31:05;2.00;99.90
13589;DHT22;6865;52.552;13.434;2023-12-07T06:33:33;1.90;99.90
13589;DHT22;6865;52.552;13.434;2023-12-07T06:36:01;1.80;99.90
13589;DHT22;6865;52.552;13.434;2023-12-07T06:38:31;1.80;99.90
13589;DHT22;6865;52.552;13.434;2023-12-07T06:40:58;1.70;99.90
13589;DHT22;6865;52.552;13.434;2023-12-07T06:43:25;1.80;99.90
13589;DHT22;6865;52.552;13.434;2023-12-07T06:45:52;1.70;99.90
13589;DHT22;6865;52.552;13.434;2023-12-07T06:48:19;1.40;99.90
13589;DHT22;6865;52.552;13.434;2023-12-07T06:50:46;1.80;99.90
13589;DHT22;6865;52.552;13.434;2023-12-07T06:53:14;1.80;99.90
13589;DHT22;6865;52.552;13.434;2023-12-07T06:55:41;1.80;99.90
13589;DHT22;6865;52.552;13.434;2023-12-07T06:58:11;1.80;99.90
13589;DHT22;6865;52.552;13.434;2023-12-07T07:00:38;1.80;99.90
13589;DHT22;6865;52.552;13.434;2023-12-07T07:03:04;1.80;99.90
13589;DHT22;6865;52.552;13.434;2023-12-07T07:05:33;1.90;99.90
13589;DHT22;6865;52.552;13.434;2023-12-07T07:07:59;1.90;99.90
13589;DHT22;6865;52.552;13.434;2023-12-07T07:10:26;1.90;99.90
13589;DHT22;6865;52.552;13.434;2023-12-07T07:12:53;2.00;99.90
13589;DHT22;6865;52.552;13.434;2023-12-07T07:15:20;2.00;99.90
13589;DHT22;6865;52.552;13.434;2023-12-07T07:17:47;2.00;99.90
13589;DHT22;6865;52.552;13.434;2023-12-07T07:20:13;2.10;99.90
13589;DHT22;6865;52.552;13.434;2023-12-07T07:22:40;2.10;99.90
13589;DHT22;6865;52.552;13.434;2023-12-07T07:25:08;2.30;99.90
13589;DHT22;6865;52.552;13.434;2023-12-07T07:27:35;2.40;99.90
13589;DHT22;6865;52.552;13.434;2023-12-07T07:30:02;2.20;99.90
13589;DHT22;6865;52.552;13.434;2023-12-07T07:32:31;2.20;99.90
13589;DHT22;6865;52.552;13.434;2023-12-07T07:34:58;2.10;99.90
13589;DHT22;6865;52.552;13.434;2023-12-07T07:37:26;2.00;99.90
13589;DHT22;6865;52.552;13.434;2023-12-07T07:39:53;1.50;99.90
13589;DHT22;6865;52.552;13.434;2023-12-07T07:42:19;2.10;99.90
13589;DHT22;6865;52.552;13.434;2023-12-07T07:44:46;2.30;99.90
13589;DHT22;6865;52.552;13.434;2023-12-07T07:47:13;2.40;99.90
13589;DHT22;6865;52.552;13.434;2023-12-07T07:49:40;2.50;99.90
13589;DHT22;6865;52.552;13.434;2023-12-07T07:52:06;2.50;99.90
13589;DHT22;6865;52.552;13.434;2023-12-07T07:54:33;2.50;99.90
13589;DHT22;6865;52.552;13.434;2023-12-07T07:57:00;2.60;99.90
13589;DHT22;6865;52.552;13.434;2023-12-07T07:59:26;2.50;99.90
13589;DHT22;6865;52.552;13.434;2023-12-07T08:01:53;2.40;99.90
13589;DHT22;6865;52.552;13.434;2023-12-07T08:04:20;2.30;99.90
13589;DHT22;6865;52.552;13.434;2023-12-07T08:06:47;2.20;99.90
13589;DHT22;6865;52.552;13.434;2023-12-07T08:09:14;2.30;99.90
13589;DHT22;6865;52.552;13.434;2023-12-07T08:11:40;2.20;99.90
13589;DHT22;6865;52.552;13.434;2023-12-07T08:14:07;2.20;99.90
13589;DHT22;6865;52.552;13.434;2023-12-07T08:16:34;2.40;99.90
13589;DHT22;6865;52.552;13.434;2023-12-07T08:19:01;2.50;99.90
13589;DHT22;6865;52.552;13.434;2023-12-07T08:21:28;2.50;99.90
13589;DHT22;6865;52.552;13.434;2023-12-07T08:23:57;2.50;99.90
13589;DHT22;6865;52.552;13.434;2023-12-07T08:26:23;2.30;99.90
13589;DHT22;6865;52.552;13.434;2023-12-07T08:28:50;2.30;99.90
13589;DHT22;6865;52.552;13.434;2023-12-07T08:31:20;2.20;99.90
13589;DHT22;6865;52.552;13.434;2023-12-07T08:33:51;2.10;99.90
13589;DHT22;6865;52.552;13.434;2023-12-07T08:36:18;2.10;99.90
13589;DHT22;6865;52.552;13.434;2023-12-07T08:38:44;2.00;99.90
13589;DHT22;6865;52.552;13.434;2023-12-07T08:41:11;1.90;99.90
13589;DHT22;6865;52.552;13.434;2023-12-07T08:43:40;2.00;99.90
13589;DHT22;6865;52.552;13.434;2023-12-07T08:46:07;2.00;99.90
13589;DHT22;6865;52.552;13.434;2023-12-07T08:48:35;2.00;99.90
13589;DHT22;6865;52.552;13.434;2023-12-07T08:51:05;2.00;99.90
13589;DHT22;6865;52.552;13.434;2023-12-07T08:53:32;2.00;99.90
13589;DHT22;6865;52.552;13.434;2023-12-07T08:55:58;2.10;99.90
13589;DHT22;6865;52.552;13.434;2023-12-07T08:58:25;2.30;99.90
13589;DHT22;6865;52.552;13.434;2023-12-07T09:00:52;2.20;99.90
13589;DHT22;6865;52.552;13.434;2023-12-07T09:03:19;2.30;99.90
13589;DHT22;6865;52.552;13.434;2023-12-07T09:05:46;2.50;99.90
13589;DHT22;6865;52.552;13.434;2023-12-07T09:08:13;2.90;99.90
13589;DHT22;6865;52.552;13.434;2023-12-07T09:10:39;2.60;99.90
13589;DHT22;6865;52.552;13.434;2023-12-07T09:13:06;2.40;99.90
13589;DHT22;6865;52.552;13.434;2023-12-07T09:15:33;2.30;99.90
13589;DHT22;6865;52.552;13.434;2023-12-07T09:18:00;1.90;99.90
13589;DHT22;6865;52.552;13.434;2023-12-07T09:20:26;1.90;99.90
13589;DHT22;6865;52.552;13.434;2023-12-07T09:22:53;2.60;99.90
13589;DHT22;6865;52.552;13.434;2023-12-07T09:25:21;2.50;99.90
13589;DHT22;6865;52.552;13.434;2023-12-07T09:27:48;2.40;99.90
13589;DHT22;6865;52.552;13.434;2023-12-07T09:30:15;2.40;99.90
13589;DHT22;6865;52.552;13.434;2023-12-07T09:32:43;2.30;99.90
13589;DHT22;6865;52.552;13.434;2023-12-07T09:35:12;2.20;99.90
13589;DHT22;6865;52.552;13.434;2023-12-07T09:37:47;2.30;99.90
13589;DHT22;6865;52.552;13.434;2023-12-07T09:40:15;2.30;99.90
13589;DHT22;6865;52.552;13.434;2023-12-07T09:42:43;2.30;99.90
13589;DHT22;6865;52.552;13.434;2023-12-07T09:45:11;2.30;99.90
13589;DHT22;6865;52.552;13.434;2023-12-07T09:47:38;2.10;99.90
13589;DHT22;6865;52.552;13.434;2023-12-07T09:50:07;2.30;99.90
13589;DHT22;6865;52.552;13.434;2023-12-07T09:52:37;2.30;99.90
13589;DHT22;6865;52.552;13.434;2023-12-07T09:55:05;2.20;99.90
13589;DHT22;6865;52.552;13.434;2023-12-07T09:57:32;2.20;99.90
13589;DHT22;6865;52.552;13.434;2023-12-07T10:00:01;2.10;99.90
13589;DHT22;6865;52.552;13.434;2023-12-07T10:02:27;2.20;99.90
13589;DHT22;6865;52.552;13.434;2023-12-07T10:05:08;2.10;99.90
13589;DHT22;6865;52.552;13.434;2023-12-07T10:07:40;2.10;99.90
13589;DHT22;6865;52.552;13.434;2023-12-07T10:10:08;2.00;99.90
13589;DHT22;6865;52.552;13.434;2023-12-07T10:12:51;2.00;99.90
13589;DHT22;6865;52.552;13.434;2023-12-07T10:15:19;2.00;99.90
13589;DHT22;6865;52.552;13.434;2023-12-07T10:20:16;1.50;99.90
13589;DHT22;6865;52.552;13.434;2023-12-07T10:22:47;2.10;99.90
13589;DHT22;6865;52.552;13.434;2023-12-07T10:25:14;2.20;99.90
13589;DHT22;6865;52.552;13.434;2023-12-07T10:27:42;2.50;99.90
13589;DHT22;6865;52.552;13.434;2023-12-07T10:30:10;2.20;99.90
13589;DHT22;6865;52.552;13.434;2023-12-07T10:32:40;2.40;99.90
13589;DHT22;6865;52.552;13.434;2023-12-07T10:35:07;2.40;99.90
13589;DHT22;6865;52.552;13.434;2023-12-07T10:37:35;2.30;99.90
13589;DHT22;6865;52.552;13.434;2023-12-07T10:40:02;2.30;99.90
13589;DHT22;6865;52.552;13.434;2023-12-07T10:42:33;2.20;99.90
13589;DHT22;6865;52.552;13.434;2023-12-07T10:45:04;2.40;99.90
13589;DHT22;6865;52.552;13.434;2023-12-07T10:47:34;2.30;99.90
13589;DHT22;6865;52.552;13.434;2023-12-07T10:50:05;2.20;99.90
13589;DHT22;6865;52.552;13.434;2023-12-07T10:52:34;2.20;99.90
13589;DHT22;6865;52.552;13.434;2023-12-07T10:55:03;2.30;99.90
13589;DHT22;6865;52.552;13.434;2023-12-07T10:57:33;2.30;99.90
13589;DHT22;6865;52.552;13.434;2023-12-07T11:00:02;2.30;99.90
13589;DHT22;6865;52.552;13.434;2023-12-07T11:02:29;2.30;99.90
13589;DHT22;6865;52.552;13.434;2023-12-07T11:04:59;2.30;99.90
13589;DHT22;6865;52.552;13.434;2023-12-07T11:07:33;2.30;99.90
13589;DHT22;6865;52.552;13.434;2023-12-07T11:10:10;2.40;99.90
13589;DHT22;6865;52.552;13.434;2023-12-07T11:12:47;2.40;99.90
13589;DHT22;6865;52.552;13.434;2023-12-07T11:15:16;2.60;99.90
13589;DHT22;6865;52.552;13.434;2023-12-07T11:17:50;2.60;99.90
13589;DHT22;6865;52.552;13.434;2023-12-07T11:20:20;2.60;99.90
13589;DHT22;6865;52.552;13.434;2023-12-07T11:22:47;2.60;99.90
13589;DHT22;6865;52.552;13.434;2023-12-07T11:25:15;2.50;99.90
13589;DHT22;6865;52.552;13.434;2023-12-07T11:27:44;2.50;99.90
13589;DHT22;6865;52.552;13.434;2023-12-07T11:30:17;2.40;99.90
13589;DHT22;6865;52.552;13.434;2023-12-07T11:32:44;2.40;99.90
13589;DHT22;6865;52.552;13.434;2023-12-07T11:35:14;2.30;99.90
13589;DHT22;6865;52.552;13.434;2023-12-07T11:38:07;2.30;99.90
13589;DHT22;6865;52.552;13.434;2023-12-07T11:40:36;2.40;99.90
13589;DHT22;6865;52.552;13.434;2023-12-07T11:43:03;2.40;99.90
13589;DHT22;6865;52.552;13.434;2023-12-07T11:45:46;2.30;99.90
13589;DHT22;6865;52.552;13.434;2023-12-07T11:48:16;2.30;99.90
13589;DHT22;6865;52.552;13.434;2023-12-07T11:50:53;2.40;99.90
13589;DHT22;6865;52.552;13.434;2023-12-07T11:53:25;2.40;99.90
13589;DHT22;6865;52.552;13.434;2023-12-07T11:55:52;2.40;99.90
13589;DHT22;6865;52.552;13.434;2023-12-07T11:58:19;2.40;99.90
13589;DHT22;6865;52.552;13.434;2023-12-07T12:00:47;2.30;99.90
13589;DHT22;6865;52.552;13.434;2023-12-07T12:03:14;2.30;99.90
13589;DHT22;6865;52.552;13.434;2023-12-07T12:05:41;2.30;99.90
13589;DHT22;6865;52.552;13.434;2023-12-07T12:08:10;2.20;99.90
13589;DHT22;6865;52.552;13.434;2023-12-07T12:10:38;2.20;99.90
13589;DHT22;6865;52.552;13.434;2023-12-07T12:13:05;2.20;99.90
13589;DHT22;6865;52.552;13.434;2023-12-07T12:15:32;2.20;99.90
13589;DHT22;6865;52.552;13.434;2023-12-07T12:17:59;2.10;99.90
13589;DHT22;6865;52.552;13.434;2023-12-07T12:20:27;2.30;99.90
13589;DHT22;6865;52.552;13.434;2023-12-07T12:22:54;2.30;99.90
13589;DHT22;6865;52.552;13.434;2023-12-07T12:25:29;2.30;99.90
13589;DHT22;6865;52.552;13.434;2023-12-07T12:27:58;2.20;99.90
13589;DHT22;6865;52.552;13.434;2023-12-07T12:30:30;2.40;99.90
13589;DHT22;6865;52.552;13.434;2023-12-07T12:32:57;2.50;99.90
13589;DHT22;6865;52.552;13.434;2023-12-07T12:35:26;2.60;99.90
13589;DHT22;6865;52.552;13.434;2023-12-07T12:37:54;2.70;99.90
13589;DHT22;6865;52.552;13.434;2023-12-07T12:40:23;2.70;99.90
13589;DHT22;6865;52.552;13.434;2023-12-07T12:42:51;2.60;99.90
13589;DHT22;6865;52.552;13.434;2023-12-07T12:45:23;2.50;99.90
13589;DHT22;6865;52.552;13.434;2023-12-07T12:47:50;2.40;99.90
13589;DHT22;6865;52.552;13.434;2023-12-07T12:50:37;2.40;99.90
13589;DHT22;6865;52.552;13.434;2023-12-07T12:53:05;2.40;99.90
13589;DHT22;6865;52.552;13.434;2023-12-07T12:55:37;2.30;99.90
13589;DHT22;6865;52.552;13.434;2023-12-07T12:58:06;2.30;99.90
13589;DHT22;6865;52.552;13.434;2023-12-07T13:00:34;2.40;99.90
13589;DHT22;6865;52.552;13.434;2023-12-07T13:03:04;2.40;99.90
13589;DHT22;6865;52.552;13.434;2023-12-07T13:05:31;2.40;99.90
13589;DHT22;6865;52.552;13.434;2023-12-07T13:08:02;2.50;99.90
13589;DHT22;6865;52.552;13.434;2023-12-07T13:10:31;2.60;99.90
13589;DHT22;6865;52.552;13.434;2023-12-07T13:13:00;2.80;99.90
13589;DHT22;6865;52.552;13.434;2023-12-07T13:15:26;2.70;99.90
13589;DHT22;6865;52.552;13.434;2023-12-07T13:17:53;2.60;99.90
13589;DHT22;6865;52.552;13.434;2023-12-07T13:20:20;2.70;99.90
13589;DHT22;6865;52.552;13.434;2023-12-07T13:22:46;2.50;99.90
13589;DHT22;6865;52.552;13.434;2023-12-07T13:25:13;2.40;99.90
13589;DHT22;6865;52.552;13.434;2023-12-07T13:27:43;2.50;99.90
13589;DHT22;6865;52.552;13.434;2023-12-07T13:30:10;2.50;99.90
13589;DHT22;6865;52.552;13.434;2023-12-07T13:32:37;2.40;99.90
13589;DHT22;6865;52.552;13.434;2023-12-07T13:35:05;2.40;99.90
13589;DHT22;6865;52.552;13.434;2023-12-07T13:37:32;2.40;99.90
13589;DHT22;6865;52.552;13.434;2023-12-07T13:39:59;2.70;99.90
13589;DHT22;6865;52.552;13.434;2023-12-07T13:42:27;2.40;99.90
13589;DHT22;6865;52.552;13.434;2023-12-07T13:44:55;2.40;99.90
13589;DHT22;6865;52.552;13.434;2023-12-07T13:47:28;2.40;99.90
13589;DHT22;6865;52.552;13.434;2023-12-07T13:49:58;2.50;99.90
13589;DHT22;6865;52.552;13.434;2023-12-07T13:52:25;2.50;99.90
13589;DHT22;6865;52.552;13.434;2023-12-07T13:54:52;2.50;99.90
13589;DHT22;6865;52.552;13.434;2023-12-07T13:57:21;2.30;99.90
13589;DHT22;6865;52.552;13.434;2023-12-07T13:59:48;2.40;99.90
13589;DHT22;6865;52.552;13.434;2023-12-07T14:02:17;2.40;99.90
13589;DHT22;6865;52.552;13.434;2023-12-07T14:04:45;2.40;99.90
13589;DHT22;6865;52.552;13.434;2023-12-07T14:07:14;2.40;99.90
13589;DHT22;6865;52.552;13.434;2023-12-07T14:09:45;2.30;99.90
13589;DHT22;6865;52.552;13.434;2023-12-07T14:12:23;2.30;99.90
13589;DHT22;6865;52.552;13.434;2023-12-07T14:14:50;2.40;99.90
13589;DHT22;6865;52.552;13.434;2023-12-07T14:17:17;2.50;99.90
13589;DHT22;6865;52.552;13.434;2023-12-07T14:19:48;2.30;99.90
13589;DHT22;6865;52.552;13.434;2023-12-07T14:22:17;2.40;99.90
13589;DHT22;6865;52.552;13.434;2023-12-07T14:24:44;2.40;99.90
13589;DHT22;6865;52.552;13.434;2023-12-07T14:27:11;2.40;99.90
13589;DHT22;6865;52.552;13.434;2023-12-07T14:29:38;2.40;99.90
13589;DHT22;6865;52.552;13.434;2023-12-07T14:32:05;2.40;99.90
13589;DHT22;6865;52.552;13.434;2023-12-07T14:34:32;2.40;99.90
13589;DHT22;6865;52.552;13.434;2023-12-07T14:37:03;2.50;99.90
13589;DHT22;6865;52.552;13.434;2023-12-07T14:39:32;2.70;99.90
13589;DHT22;6865;52.552;13.434;2023-12-07T14:41:58;2.80;99.90
13589;DHT22;6865;52.552;13.434;2023-12-07T14:44:25;2.90;99.90
13589;DHT22;6865;52.552;13.434;2023-12-07T14:46:56;3.00;99.90
13589;DHT22;6865;52.552;13.434;2023-12-07T14:49:23;2.90;99.90
13589;DHT22;6865;52.552;13.434;2023-12-07T14:51:51;3.00;99.90
13589;DHT22;6865;52.552;13.434;2023-12-07T14:54:17;3.00;99.90
13589;DHT22;6865;52.552;13.434;2023-12-07T14:56:52;3.10;99.90
13589;DHT22;6865;52.552;13.434;2023-12-07T14:59:19;3.00;99.90
13589;DHT22;6865;52.552;13.434;2023-12-07T15:01:49;3.00;99.90
13589;DHT22;6865;52.552;13.434;2023-12-07T15:04:17;2.80;99.90
13589;DHT22;6865;52.552;13.434;2023-12-07T15:06:59;2.80;99.90
13589;DHT22;6865;52.552;13.434;2023-12-07T15:09:26;2.80;99.90
13589;DHT22;6865;52.552;13.434;2023-12-07T15:11:53;2.70;99.90
13589;DHT22;6865;52.552;13.434;2023-12-07T15:14:21;2.70;99.90
13589;DHT22;6865;52.552;13.434;2023-12-07T15:17:03;2.80;99.90
13589;DHT22;6865;52.552;13.434;2023-12-07T15:19:31;2.80;99.90
13589;DHT22;6865;52.552;13.434;2023-12-07T15:21:59;2.80;99.90
13589;DHT22;6865;52.552;13.434;2023-12-07T15:24:25;2.90;99.90
13589;DHT22;6865;52.552;13.434;2023-12-07T15:27:02;2.90;99.90
13589;DHT22;6865;52.552;13.434;2023-12-07T15:29:29;3.00;99.90
13589;DHT22;6865;52.552;13.434;2023-12-07T15:31:56;3.00;99.90
13589;DHT22;6865;52.552;13.434;2023-12-07T15:34:23;3.20;99.90
13589;DHT22;6865;52.552;13.434;2023-12-07T15:37:04;3.30;99.90
13589;DHT22;6865;52.552;13.434;2023-12-07T15:39:31;3.00;99.90
13589;DHT22;6865;52.552;13.434;2023-12-07T15:41:57;3.30;99.90
13589;DHT22;6865;52.552;13.434;2023-12-07T15:44:25;3.30;99.90
13589;DHT22;6865;52.552;13.434;2023-12-07T15:46:56;3.30;99.90
13589;DHT22;6865;52.552;13.434;2023-12-07T15:49:23;3.30;99.90
13589;DHT22;6865;52.552;13.434;2023-12-07T15:51:51;3.90;99.90
13589;DHT22;6865;52.552;13.434;2023-12-07T15:54:19;3.30;99.90